Open Full Screen Window  High Contrast Mode
Wind Gusting 00 knots
11
October 23, 2014 2:34 PM EDT
Weather Information
Wind Direction
  290 °
Wind Speed
  11 kt (13 mph)
Wind Gust
  00 kt (0 mph)
Altimeter
30.13 in
Visibility
10 SM
Temperature
14° C
57° F
Dewpoint
06° C
43° F
Humidity
59%
1hr Rain Fall
00.00 in.
24hr Rain Fall
00.00 in.
Sky Condition
Broken @ 2,500 ft
MVFR

METAR KPOV 231834Z AUTO 29011KT 10SM BKN025 14/06 A3013 RMK AO2 T01400062

*Background is not an actual portrayal of the airport.